sensor_id;sensor_type;location;lat;lon;timestamp;P1;durP1;ratioP1;P2;durP2;ratioP2
54235;SDS011;40151;43.606;1.472;2023-04-08T00:01:37;2.47;;;1.30;;
54235;SDS011;40151;43.606;1.472;2023-04-08T00:04:02;3.15;;;1.60;;
54235;SDS011;40151;43.606;1.472;2023-04-08T00:06:28;2.95;;;1.60;;
54235;SDS011;40151;43.606;1.472;2023-04-08T00:08:53;3.83;;;1.70;;
54235;SDS011;40151;43.606;1.472;2023-04-08T00:11:19;2.92;;;1.50;;
54235;SDS011;40151;43.606;1.472;2023-04-08T00:13:45;2.67;;;1.58;;
54235;SDS011;40151;43.606;1.472;2023-04-08T00:16:10;2.85;;;1.63;;
54235;SDS011;40151;43.606;1.472;2023-04-08T00:18:36;3.38;;;1.80;;
54235;SDS011;40151;43.606;1.472;2023-04-08T00:21:02;3.05;;;1.63;;
54235;SDS011;40151;43.606;1.472;2023-04-08T00:23:28;2.95;;;1.45;;
54235;SDS011;40151;43.606;1.472;2023-04-08T00:25:53;3.00;;;1.65;;
54235;SDS011;40151;43.606;1.472;2023-04-08T00:28:19;3.30;;;1.60;;
54235;SDS011;40151;43.606;1.472;2023-04-08T00:30:45;4.07;;;1.70;;
54235;SDS011;40151;43.606;1.472;2023-04-08T00:33:11;3.50;;;1.67;;
54235;SDS011;40151;43.606;1.472;2023-04-08T00:35:36;2.65;;;1.50;;
54235;SDS011;40151;43.606;1.472;2023-04-08T00:38:02;3.67;;;1.60;;
54235;SDS011;40151;43.606;1.472;2023-04-08T00:40:28;3.33;;;1.60;;
54235;SDS011;40151;43.606;1.472;2023-04-08T00:42:55;2.95;;;1.55;;
54235;SDS011;40151;43.606;1.472;2023-04-08T00:45:21;3.25;;;1.60;;
54235;SDS011;40151;43.606;1.472;2023-04-08T00:47:46;2.97;;;1.73;;
54235;SDS011;40151;43.606;1.472;2023-04-08T00:50:16;2.63;;;1.60;;
54235;SDS011;40151;43.606;1.472;2023-04-08T00:52:42;2.55;;;1.52;;
54235;SDS011;40151;43.606;1.472;2023-04-08T00:55:07;3.13;;;1.50;;
54235;SDS011;40151;43.606;1.472;2023-04-08T00:57:33;3.88;;;1.52;;
54235;SDS011;40151;43.606;1.472;2023-04-08T00:59:59;3.58;;;1.80;;
54235;SDS011;40151;43.606;1.472;2023-04-08T01:03:26;3.30;;;1.75;;
54235;SDS011;40151;43.606;1.472;2023-04-08T01:08:28;2.65;;;1.63;;
54235;SDS011;40151;43.606;1.472;2023-04-08T01:10:58;2.72;;;1.50;;
54235;SDS011;40151;43.606;1.472;2023-04-08T01:13:26;2.60;;;1.42;;
54235;SDS011;40151;43.606;1.472;2023-04-08T01:15:55;2.85;;;1.52;;
54235;SDS011;40151;43.606;1.472;2023-04-08T01:18:21;2.80;;;1.70;;
54235;SDS011;40151;43.606;1.472;2023-04-08T01:20:46;2.92;;;1.45;;
54235;SDS011;40151;43.606;1.472;2023-04-08T01:26:19;3.28;;;1.63;;
54235;SDS011;40151;43.606;1.472;2023-04-08T01:28:47;3.13;;;1.67;;
54235;SDS011;40151;43.606;1.472;2023-04-08T01:31:15;3.58;;;1.67;;
54235;SDS011;40151;43.606;1.472;2023-04-08T01:33:41;3.72;;;1.65;;
54235;SDS011;40151;43.606;1.472;2023-04-08T01:36:08;3.05;;;1.67;;
54235;SDS011;40151;43.606;1.472;2023-04-08T01:38:35;3.38;;;1.67;;
54235;SDS011;40151;43.606;1.472;2023-04-08T01:41:02;4.05;;;1.88;;
54235;SDS011;40151;43.606;1.472;2023-04-08T01:43:29;3.53;;;2.00;;
54235;SDS011;40151;43.606;1.472;2023-04-08T01:45:57;3.88;;;1.83;;
54235;SDS011;40151;43.606;1.472;2023-04-08T01:48:24;3.30;;;1.60;;
54235;SDS011;40151;43.606;1.472;2023-04-08T01:50:50;3.65;;;1.88;;
54235;SDS011;40151;43.606;1.472;2023-04-08T01:53:16;2.90;;;1.90;;
54235;SDS011;40151;43.606;1.472;2023-04-08T01:55:42;3.53;;;1.90;;
54235;SDS011;40151;43.606;1.472;2023-04-08T01:58:10;3.17;;;1.85;;
54235;SDS011;40151;43.606;1.472;2023-04-08T02:00:41;3.03;;;1.50;;
54235;SDS011;40151;43.606;1.472;2023-04-08T02:03:07;4.03;;;2.15;;
54235;SDS011;40151;43.606;1.472;2023-04-08T02:05:36;2.90;;;1.60;;
54235;SDS011;40151;43.606;1.472;2023-04-08T02:08:02;4.05;;;2.08;;
54235;SDS011;40151;43.606;1.472;2023-04-08T02:10:27;3.35;;;1.60;;
54235;SDS011;40151;43.606;1.472;2023-04-08T02:12:52;3.10;;;1.73;;
54235;SDS011;40151;43.606;1.472;2023-04-08T02:15:19;2.97;;;1.70;;
54235;SDS011;40151;43.606;1.472;2023-04-08T02:17:45;2.60;;;1.50;;
54235;SDS011;40151;43.606;1.472;2023-04-08T02:20:15;3.90;;;1.77;;
54235;SDS011;40151;43.606;1.472;2023-04-08T02:22:53;3.42;;;2.03;;
54235;SDS011;40151;43.606;1.472;2023-04-08T02:25:27;2.88;;;1.60;;
54235;SDS011;40151;43.606;1.472;2023-04-08T02:27:54;2.45;;;1.42;;
54235;SDS011;40151;43.606;1.472;2023-04-08T02:30:21;3.28;;;1.50;;
54235;SDS011;40151;43.606;1.472;2023-04-08T02:32:49;2.97;;;1.83;;
54235;SDS011;40151;43.606;1.472;2023-04-08T02:35:17;3.00;;;1.88;;
54235;SDS011;40151;43.606;1.472;2023-04-08T02:37:45;2.85;;;1.50;;
54235;SDS011;40151;43.606;1.472;2023-04-08T02:42:52;3.63;;;1.70;;
54235;SDS011;40151;43.606;1.472;2023-04-08T02:45:18;2.60;;;1.30;;
54235;SDS011;40151;43.606;1.472;2023-04-08T02:47:44;3.58;;;1.92;;
54235;SDS011;40151;43.606;1.472;2023-04-08T02:50:09;4.47;;;1.70;;
54235;SDS011;40151;43.606;1.472;2023-04-08T02:52:35;3.00;;;1.73;;
54235;SDS011;40151;43.606;1.472;2023-04-08T02:55:00;3.72;;;1.98;;
54235;SDS011;40151;43.606;1.472;2023-04-08T02:57:26;2.47;;;1.50;;
54235;SDS011;40151;43.606;1.472;2023-04-08T02:59:51;3.72;;;2.00;;
54235;SDS011;40151;43.606;1.472;2023-04-08T03:02:17;2.45;;;1.45;;
54235;SDS011;40151;43.606;1.472;2023-04-08T03:04:42;2.90;;;1.80;;
54235;SDS011;40151;43.606;1.472;2023-04-08T03:07:07;3.03;;;1.70;;
54235;SDS011;40151;43.606;1.472;2023-04-08T03:09:33;2.92;;;1.70;;
54235;SDS011;40151;43.606;1.472;2023-04-08T03:11:58;3.70;;;1.88;;
54235;SDS011;40151;43.606;1.472;2023-04-08T03:14:24;3.33;;;1.98;;
54235;SDS011;40151;43.606;1.472;2023-04-08T03:16:49;2.85;;;1.38;;
54235;SDS011;40151;43.606;1.472;2023-04-08T03:19:15;2.85;;;1.67;;
54235;SDS011;40151;43.606;1.472;2023-04-08T03:21:40;4.30;;;1.85;;
54235;SDS011;40151;43.606;1.472;2023-04-08T03:24:06;2.80;;;1.55;;
54235;SDS011;40151;43.606;1.472;2023-04-08T03:26:31;3.65;;;1.98;;
54235;SDS011;40151;43.606;1.472;2023-04-08T03:28:57;3.28;;;1.95;;
54235;SDS011;40151;43.606;1.472;2023-04-08T03:31:22;2.60;;;1.50;;
54235;SDS011;40151;43.606;1.472;2023-04-08T03:33:47;3.75;;;1.70;;
54235;SDS011;40151;43.606;1.472;2023-04-08T03:36:13;2.85;;;1.63;;
54235;SDS011;40151;43.606;1.472;2023-04-08T03:38:38;3.47;;;1.80;;
54235;SDS011;40151;43.606;1.472;2023-04-08T03:41:04;2.70;;;1.40;;
54235;SDS011;40151;43.606;1.472;2023-04-08T03:43:29;3.05;;;1.75;;
54235;SDS011;40151;43.606;1.472;2023-04-08T03:45:55;2.85;;;1.50;;
54235;SDS011;40151;43.606;1.472;2023-04-08T03:48:21;2.38;;;1.30;;
54235;SDS011;40151;43.606;1.472;2023-04-08T03:50:47;2.95;;;1.50;;
54235;SDS011;40151;43.606;1.472;2023-04-08T03:53:12;2.55;;;1.55;;
54235;SDS011;40151;43.606;1.472;2023-04-08T03:55:38;3.22;;;1.63;;
54235;SDS011;40151;43.606;1.472;2023-04-08T03:58:04;2.38;;;1.38;;
54235;SDS011;40151;43.606;1.472;2023-04-08T04:00:30;3.40;;;1.92;;
54235;SDS011;40151;43.606;1.472;2023-04-08T04:02:55;3.67;;;1.60;;
54235;SDS011;40151;43.606;1.472;2023-04-08T04:05:21;3.60;;;1.77;;
54235;SDS011;40151;43.606;1.472;2023-04-08T04:07:46;3.17;;;1.70;;
54235;SDS011;40151;43.606;1.472;2023-04-08T04:10:11;3.20;;;1.50;;
54235;SDS011;40151;43.606;1.472;2023-04-08T04:12:37;3.95;;;1.77;;
54235;SDS011;40151;43.606;1.472;2023-04-08T04:15:02;3.67;;;1.85;;
54235;SDS011;40151;43.606;1.472;2023-04-08T04:17:28;3.40;;;1.88;;
54235;SDS011;40151;43.606;1.472;2023-04-08T04:19:54;4.20;;;1.92;;
54235;SDS011;40151;43.606;1.472;2023-04-08T04:22:19;3.97;;;1.90;;
54235;SDS011;40151;43.606;1.472;2023-04-08T04:24:48;3.60;;;1.95;;
54235;SDS011;40151;43.606;1.472;2023-04-08T04:27:14;6.78;;;2.47;;
54235;SDS011;40151;43.606;1.472;2023-04-08T04:29:41;9.45;;;2.97;;
54235;SDS011;40151;43.606;1.472;2023-04-08T04:32:07;8.98;;;3.10;;
54235;SDS011;40151;43.606;1.472;2023-04-08T04:34:33;6.22;;;2.42;;
54235;SDS011;40151;43.606;1.472;2023-04-08T04:36:58;5.57;;;2.45;;
54235;SDS011;40151;43.606;1.472;2023-04-08T04:39:24;4.78;;;2.20;;
54235;SDS011;40151;43.606;1.472;2023-04-08T04:41:49;5.30;;;2.30;;
54235;SDS011;40151;43.606;1.472;2023-04-08T04:44:14;6.00;;;2.72;;
54235;SDS011;40151;43.606;1.472;2023-04-08T04:46:40;5.55;;;2.15;;
54235;SDS011;40151;43.606;1.472;2023-04-08T04:49:06;5.50;;;2.10;;
54235;SDS011;40151;43.606;1.472;2023-04-08T04:51:31;4.50;;;1.67;;
54235;SDS011;40151;43.606;1.472;2023-04-08T04:53:59;4.72;;;2.33;;
54235;SDS011;40151;43.606;1.472;2023-04-08T04:56:25;3.80;;;1.80;;
54235;SDS011;40151;43.606;1.472;2023-04-08T04:58:51;5.30;;;2.42;;
54235;SDS011;40151;43.606;1.472;2023-04-08T05:01:16;3.38;;;1.65;;
54235;SDS011;40151;43.606;1.472;2023-04-08T05:03:42;3.53;;;1.67;;
54235;SDS011;40151;43.606;1.472;2023-04-08T05:06:07;3.50;;;1.65;;
54235;SDS011;40151;43.606;1.472;2023-04-08T05:08:33;3.28;;;1.65;;
54235;SDS011;40151;43.606;1.472;2023-04-08T05:10:58;4.05;;;1.90;;
54235;SDS011;40151;43.606;1.472;2023-04-08T05:13:26;4.57;;;1.80;;
54235;SDS011;40151;43.606;1.472;2023-04-08T05:15:52;3.65;;;1.70;;
54235;SDS011;40151;43.606;1.472;2023-04-08T05:18:17;3.78;;;1.60;;
54235;SDS011;40151;43.606;1.472;2023-04-08T05:20:43;3.38;;;1.63;;
54235;SDS011;40151;43.606;1.472;2023-04-08T05:23:09;5.20;;;1.67;;
54235;SDS011;40151;43.606;1.472;2023-04-08T05:25:34;3.25;;;1.83;;
54235;SDS011;40151;43.606;1.472;2023-04-08T05:28:00;3.70;;;1.65;;
54235;SDS011;40151;43.606;1.472;2023-04-08T05:30:25;4.05;;;1.85;;
54235;SDS011;40151;43.606;1.472;2023-04-08T05:32:51;2.90;;;1.50;;
54235;SDS011;40151;43.606;1.472;2023-04-08T05:35:16;3.08;;;1.73;;
54235;SDS011;40151;43.606;1.472;2023-04-08T05:37:41;3.67;;;1.73;;
54235;SDS011;40151;43.606;1.472;2023-04-08T05:40:07;3.08;;;1.85;;
54235;SDS011;40151;43.606;1.472;2023-04-08T05:42:33;2.95;;;1.60;;
54235;SDS011;40151;43.606;1.472;2023-04-08T05:44:58;3.80;;;1.85;;
54235;SDS011;40151;43.606;1.472;2023-04-08T05:47:24;3.22;;;1.70;;
54235;SDS011;40151;43.606;1.472;2023-04-08T05:49:49;2.55;;;1.50;;
54235;SDS011;40151;43.606;1.472;2023-04-08T05:52:15;2.47;;;1.60;;
54235;SDS011;40151;43.606;1.472;2023-04-08T05:54:44;3.50;;;1.85;;
54235;SDS011;40151;43.606;1.472;2023-04-08T05:57:09;2.88;;;1.70;;
54235;SDS011;40151;43.606;1.472;2023-04-08T05:59:35;3.33;;;1.65;;
54235;SDS011;40151;43.606;1.472;2023-04-08T06:02:00;3.28;;;2.00;;
54235;SDS011;40151;43.606;1.472;2023-04-08T06:04:26;3.60;;;1.90;;
54235;SDS011;40151;43.606;1.472;2023-04-08T06:06:51;2.38;;;1.35;;
54235;SDS011;40151;43.606;1.472;2023-04-08T06:09:17;3.42;;;1.80;;
54235;SDS011;40151;43.606;1.472;2023-04-08T06:11:42;3.25;;;1.58;;
54235;SDS011;40151;43.606;1.472;2023-04-08T06:14:07;2.60;;;1.35;;
54235;SDS011;40151;43.606;1.472;2023-04-08T06:16:33;2.70;;;1.35;;
54235;SDS011;40151;43.606;1.472;2023-04-08T06:18:58;3.97;;;1.90;;
54235;SDS011;40151;43.606;1.472;2023-04-08T06:21:24;2.25;;;1.38;;
54235;SDS011;40151;43.606;1.472;2023-04-08T06:23:50;2.60;;;1.52;;
54235;SDS011;40151;43.606;1.472;2023-04-08T06:26:15;3.25;;;1.50;;
54235;SDS011;40151;43.606;1.472;2023-04-08T06:28:42;3.38;;;1.75;;
54235;SDS011;40151;43.606;1.472;2023-04-08T06:31:07;3.03;;;1.60;;
54235;SDS011;40151;43.606;1.472;2023-04-08T06:33:33;2.92;;;1.42;;
54235;SDS011;40151;43.606;1.472;2023-04-08T06:36:02;3.00;;;1.85;;
54235;SDS011;40151;43.606;1.472;2023-04-08T06:38:29;3.20;;;1.65;;
54235;SDS011;40151;43.606;1.472;2023-04-08T06:40:55;3.55;;;1.50;;
54235;SDS011;40151;43.606;1.472;2023-04-08T06:43:25;2.60;;;1.33;;
54235;SDS011;40151;43.606;1.472;2023-04-08T06:45:51;2.97;;;1.77;;
54235;SDS011;40151;43.606;1.472;2023-04-08T06:48:17;2.60;;;1.50;;
54235;SDS011;40151;43.606;1.472;2023-04-08T06:50:43;2.25;;;1.55;;
54235;SDS011;40151;43.606;1.472;2023-04-08T06:53:08;3.35;;;1.88;;
54235;SDS011;40151;43.606;1.472;2023-04-08T06:55:33;3.05;;;1.85;;
54235;SDS011;40151;43.606;1.472;2023-04-08T06:57:59;3.47;;;1.90;;
54235;SDS011;40151;43.606;1.472;2023-04-08T07:00:26;3.17;;;1.58;;
54235;SDS011;40151;43.606;1.472;2023-04-08T07:02:51;3.40;;;1.98;;
54235;SDS011;40151;43.606;1.472;2023-04-08T07:05:17;3.08;;;1.65;;
54235;SDS011;40151;43.606;1.472;2023-04-08T07:07:42;2.67;;;1.42;;
54235;SDS011;40151;43.606;1.472;2023-04-08T07:10:08;2.85;;;1.52;;
54235;SDS011;40151;43.606;1.472;2023-04-08T07:12:33;3.08;;;1.55;;
54235;SDS011;40151;43.606;1.472;2023-04-08T07:14:59;2.70;;;1.50;;
54235;SDS011;40151;43.606;1.472;2023-04-08T07:17:24;3.78;;;1.80;;
54235;SDS011;40151;43.606;1.472;2023-04-08T07:19:50;2.45;;;1.30;;
54235;SDS011;40151;43.606;1.472;2023-04-08T07:22:15;3.15;;;1.63;;
54235;SDS011;40151;43.606;1.472;2023-04-08T07:24:41;3.95;;;1.80;;
54235;SDS011;40151;43.606;1.472;2023-04-08T07:27:09;2.75;;;1.55;;
54235;SDS011;40151;43.606;1.472;2023-04-08T07:29:35;2.50;;;1.45;;
54235;SDS011;40151;43.606;1.472;2023-04-08T07:32:00;3.13;;;1.70;;
54235;SDS011;40151;43.606;1.472;2023-04-08T07:34:25;2.38;;;1.50;;
54235;SDS011;40151;43.606;1.472;2023-04-08T07:36:51;3.25;;;1.38;;
54235;SDS011;40151;43.606;1.472;2023-04-08T07:39:16;3.13;;;1.40;;
54235;SDS011;40151;43.606;1.472;2023-04-08T07:41:41;2.75;;;1.42;;
54235;SDS011;40151;43.606;1.472;2023-04-08T07:44:07;3.63;;;1.58;;
54235;SDS011;40151;43.606;1.472;2023-04-08T07:46:35;3.53;;;1.80;;
54235;SDS011;40151;43.606;1.472;2023-04-08T07:49:02;2.42;;;1.45;;
54235;SDS011;40151;43.606;1.472;2023-04-08T07:51:28;3.40;;;1.70;;
54235;SDS011;40151;43.606;1.472;2023-04-08T07:53:54;3.55;;;1.40;;
54235;SDS011;40151;43.606;1.472;2023-04-08T07:56:19;3.05;;;1.42;;
54235;SDS011;40151;43.606;1.472;2023-04-08T07:58:46;2.22;;;1.33;;
54235;SDS011;40151;43.606;1.472;2023-04-08T08:01:15;3.17;;;1.40;;
54235;SDS011;40151;43.606;1.472;2023-04-08T08:03:45;2.05;;;1.27;;
54235;SDS011;40151;43.606;1.472;2023-04-08T08:06:11;2.90;;;1.48;;
54235;SDS011;40151;43.606;1.472;2023-04-08T08:08:37;2.58;;;1.40;;
54235;SDS011;40151;43.606;1.472;2023-04-08T08:11:02;3.42;;;1.60;;
54235;SDS011;40151;43.606;1.472;2023-04-08T08:13:28;2.65;;;1.60;;
54235;SDS011;40151;43.606;1.472;2023-04-08T08:15:53;2.63;;;1.70;;
54235;SDS011;40151;43.606;1.472;2023-04-08T08:18:18;2.40;;;1.50;;
54235;SDS011;40151;43.606;1.472;2023-04-08T08:20:45;2.38;;;1.55;;
54235;SDS011;40151;43.606;1.472;2023-04-08T08:23:10;2.03;;;1.27;;
54235;SDS011;40151;43.606;1.472;2023-04-08T08:25:35;2.75;;;1.40;;
54235;SDS011;40151;43.606;1.472;2023-04-08T08:28:01;2.15;;;1.27;;
54235;SDS011;40151;43.606;1.472;2023-04-08T08:30:26;3.42;;;1.60;;
54235;SDS011;40151;43.606;1.472;2023-04-08T08:32:52;3.15;;;1.38;;
54235;SDS011;40151;43.606;1.472;2023-04-08T08:35:17;3.17;;;1.67;;
54235;SDS011;40151;43.606;1.472;2023-04-08T08:37:43;2.25;;;1.25;;
54235;SDS011;40151;43.606;1.472;2023-04-08T08:40:08;2.88;;;1.80;;
54235;SDS011;40151;43.606;1.472;2023-04-08T08:42:34;2.25;;;1.30;;
54235;SDS011;40151;43.606;1.472;2023-04-08T08:45:01;2.22;;;1.30;;
54235;SDS011;40151;43.606;1.472;2023-04-08T08:47:27;2.90;;;1.67;;
54235;SDS011;40151;43.606;1.472;2023-04-08T08:49:53;2.65;;;1.67;;
54235;SDS011;40151;43.606;1.472;2023-04-08T08:52:18;3.15;;;1.65;;
54235;SDS011;40151;43.606;1.472;2023-04-08T08:54:44;1.95;;;1.30;;
54235;SDS011;40151;43.606;1.472;2023-04-08T08:57:19;2.53;;;1.52;;
54235;SDS011;40151;43.606;1.472;2023-04-08T08:59:45;2.70;;;1.58;;
54235;SDS011;40151;43.606;1.472;2023-04-08T09:02:28;2.60;;;1.42;;
54235;SDS011;40151;43.606;1.472;2023-04-08T09:04:56;2.95;;;1.60;;
54235;SDS011;40151;43.606;1.472;2023-04-08T09:07:24;3.25;;;1.95;;
54235;SDS011;40151;43.606;1.472;2023-04-08T09:09:50;2.45;;;1.45;;
54235;SDS011;40151;43.606;1.472;2023-04-08T09:12:16;3.00;;;1.65;;
54235;SDS011;40151;43.606;1.472;2023-04-08T09:14:42;2.83;;;1.30;;
54235;SDS011;40151;43.606;1.472;2023-04-08T09:17:08;1.95;;;1.40;;
54235;SDS011;40151;43.606;1.472;2023-04-08T09:19:33;2.40;;;1.35;;
54235;SDS011;40151;43.606;1.472;2023-04-08T09:22:05;2.70;;;1.38;;
54235;SDS011;40151;43.606;1.472;2023-04-08T09:24:32;3.38;;;1.48;;
54235;SDS011;40151;43.606;1.472;2023-04-08T09:26:58;3.65;;;1.58;;
54235;SDS011;40151;43.606;1.472;2023-04-08T09:29:25;3.03;;;1.45;;
54235;SDS011;40151;43.606;1.472;2023-04-08T09:31:54;3.08;;;1.58;;
54235;SDS011;40151;43.606;1.472;2023-04-08T09:34:21;2.53;;;1.33;;
54235;SDS011;40151;43.606;1.472;2023-04-08T09:36:50;2.45;;;1.40;;
54235;SDS011;40151;43.606;1.472;2023-04-08T09:39:16;2.28;;;1.33;;
54235;SDS011;40151;43.606;1.472;2023-04-08T09:41:42;3.28;;;1.67;;
54235;SDS011;40151;43.606;1.472;2023-04-08T09:44:09;2.28;;;1.25;;
54235;SDS011;40151;43.606;1.472;2023-04-08T09:46:42;3.95;;;1.48;;
54235;SDS011;40151;43.606;1.472;2023-04-08T09:52:37;3.45;;;1.27;;
54235;SDS011;40151;43.606;1.472;2023-04-08T09:55:08;2.45;;;1.13;;
54235;SDS011;40151;43.606;1.472;2023-04-08T09:57:40;2.00;;;1.20;;
54235;SDS011;40151;43.606;1.472;2023-04-08T10:03:03;2.90;;;1.45;;
54235;SDS011;40151;43.606;1.472;2023-04-08T10:05:32;2.60;;;1.35;;
54235;SDS011;40151;43.606;1.472;2023-04-08T10:08:01;2.35;;;1.30;;
54235;SDS011;40151;43.606;1.472;2023-04-08T10:10:28;2.17;;;1.30;;
54235;SDS011;40151;43.606;1.472;2023-04-08T10:12:53;2.30;;;1.23;;
54235;SDS011;40151;43.606;1.472;2023-04-08T10:17:48;2.90;;;1.40;;
54235;SDS011;40151;43.606;1.472;2023-04-08T10:22:59;2.75;;;1.48;;
54235;SDS011;40151;43.606;1.472;2023-04-08T10:25:32;2.38;;;1.17;;
54235;SDS011;40151;43.606;1.472;2023-04-08T10:28:43;2.63;;;1.38;;
54235;SDS011;40151;43.606;1.472;2023-04-08T10:33:21;2.00;;;1.15;;
54235;SDS011;40151;43.606;1.472;2023-04-08T10:38:24;2.38;;;1.27;;
54235;SDS011;40151;43.606;1.472;2023-04-08T10:40:49;2.90;;;1.50;;
54235;SDS011;40151;43.606;1.472;2023-04-08T10:43:15;1.50;;;1.10;;
54235;SDS011;40151;43.606;1.472;2023-04-08T10:45:41;2.67;;;1.20;;
54235;SDS011;40151;43.606;1.472;2023-04-08T10:48:14;2.05;;;1.17;;
54235;SDS011;40151;43.606;1.472;2023-04-08T10:50:42;2.97;;;1.42;;
54235;SDS011;40151;43.606;1.472;2023-04-08T10:53:08;2.03;;;1.20;;
54235;SDS011;40151;43.606;1.472;2023-04-08T10:55:35;2.65;;;1.30;;
54235;SDS011;40151;43.606;1.472;2023-04-08T10:58:07;2.97;;;1.30;;
54235;SDS011;40151;43.606;1.472;2023-04-08T11:03:00;2.55;;;1.20;;
54235;SDS011;40151;43.606;1.472;2023-04-08T11:05:26;2.45;;;1.05;;
54235;SDS011;40151;43.606;1.472;2023-04-08T11:07:52;1.85;;;1.00;;
54235;SDS011;40151;43.606;1.472;2023-04-08T11:10:17;2.05;;;1.13;;
54235;SDS011;40151;43.606;1.472;2023-04-08T11:12:43;2.20;;;1.17;;
54235;SDS011;40151;43.606;1.472;2023-04-08T11:15:08;2.00;;;1.10;;
54235;SDS011;40151;43.606;1.472;2023-04-08T11:17:34;2.03;;;1.30;;
54235;SDS011;40151;43.606;1.472;2023-04-08T11:20:01;2.08;;;1.30;;
54235;SDS011;40151;43.606;1.472;2023-04-08T11:22:30;2.67;;;1.15;;
54235;SDS011;40151;43.606;1.472;2023-04-08T11:24:57;1.77;;;1.08;;
54235;SDS011;40151;43.606;1.472;2023-04-08T11:27:23;2.53;;;1.35;;
54235;SDS011;40151;43.606;1.472;2023-04-08T11:29:50;1.75;;;1.20;;
54235;SDS011;40151;43.606;1.472;2023-04-08T11:32:20;2.75;;;1.10;;
54235;SDS011;40151;43.606;1.472;2023-04-08T11:34:47;1.80;;;1.13;;
54235;SDS011;40151;43.606;1.472;2023-04-08T11:37:13;2.00;;;1.10;;
54235;SDS011;40151;43.606;1.472;2023-04-08T11:39:45;2.25;;;1.15;;
54235;SDS011;40151;43.606;1.472;2023-04-08T11:42:29;3.15;;;1.30;;
54235;SDS011;40151;43.606;1.472;2023-04-08T11:44:57;2.15;;;1.10;;
54235;SDS011;40151;43.606;1.472;2023-04-08T11:47:30;1.48;;;0.93;;
54235;SDS011;40151;43.606;1.472;2023-04-08T11:49:56;2.30;;;1.40;;
54235;SDS011;40151;43.606;1.472;2023-04-08T11:52:22;1.60;;;0.93;;
54235;SDS011;40151;43.606;1.472;2023-04-08T11:54:47;2.05;;;1.30;;
54235;SDS011;40151;43.606;1.472;2023-04-08T11:57:13;2.40;;;1.05;;
54235;SDS011;40151;43.606;1.472;2023-04-08T11:59:39;2.40;;;1.23;;
54235;SDS011;40151;43.606;1.472;2023-04-08T12:02:05;2.33;;;1.20;;
54235;SDS011;40151;43.606;1.472;2023-04-08T12:04:31;2.78;;;1.38;;
54235;SDS011;40151;43.606;1.472;2023-04-08T12:06:58;2.15;;;1.08;;
54235;SDS011;40151;43.606;1.472;2023-04-08T12:09:23;2.92;;;1.25;;
54235;SDS011;40151;43.606;1.472;2023-04-08T12:11:48;1.60;;;0.93;;
54235;SDS011;40151;43.606;1.472;2023-04-08T12:14:14;2.25;;;1.25;;
54235;SDS011;40151;43.606;1.472;2023-04-08T12:16:39;2.00;;;1.10;;
54235;SDS011;40151;43.606;1.472;2023-04-08T12:19:05;1.42;;;0.90;;
54235;SDS011;40151;43.606;1.472;2023-04-08T12:21:31;2.30;;;1.25;;
54235;SDS011;40151;43.606;1.472;2023-04-08T12:23:58;2.33;;;1.30;;
54235;SDS011;40151;43.606;1.472;2023-04-08T12:26:23;1.92;;;0.95;;
54235;SDS011;40151;43.606;1.472;2023-04-08T12:28:48;2.13;;;1.17;;
54235;SDS011;40151;43.606;1.472;2023-04-08T12:31:14;3.58;;;1.20;;
54235;SDS011;40151;43.606;1.472;2023-04-08T12:33:39;1.63;;;0.95;;
54235;SDS011;40151;43.606;1.472;2023-04-08T12:36:05;1.10;;;0.90;;
54235;SDS011;40151;43.606;1.472;2023-04-08T12:38:30;1.60;;;1.08;;
54235;SDS011;40151;43.606;1.472;2023-04-08T12:40:57;2.03;;;0.98;;
54235;SDS011;40151;43.606;1.472;2023-04-08T12:43:22;2.33;;;1.00;;
54235;SDS011;40151;43.606;1.472;2023-04-08T12:45:48;1.83;;;1.10;;
54235;SDS011;40151;43.606;1.472;2023-04-08T12:48:13;1.58;;;0.80;;
54235;SDS011;40151;43.606;1.472;2023-04-08T12:50:39;1.85;;;1.05;;
54235;SDS011;40151;43.606;1.472;2023-04-08T12:53:04;1.67;;;1.00;;
54235;SDS011;40151;43.606;1.472;2023-04-08T12:55:31;1.92;;;1.10;;
54235;SDS011;40151;43.606;1.472;2023-04-08T12:57:56;2.03;;;1.17;;
54235;SDS011;40151;43.606;1.472;2023-04-08T13:00:21;1.63;;;0.90;;
54235;SDS011;40151;43.606;1.472;2023-04-08T13:02:47;1.25;;;0.90;;
54235;SDS011;40151;43.606;1.472;2023-04-08T13:05:12;1.58;;;1.00;;
54235;SDS011;40151;43.606;1.472;2023-04-08T13:07:38;1.55;;;0.85;;
54235;SDS011;40151;43.606;1.472;2023-04-08T13:10:03;2.17;;;0.90;;
54235;SDS011;40151;43.606;1.472;2023-04-08T13:12:31;1.40;;;0.80;;
54235;SDS011;40151;43.606;1.472;2023-04-08T13:14:56;1.67;;;0.80;;
54235;SDS011;40151;43.606;1.472;2023-04-08T13:17:22;2.15;;;1.02;;
54235;SDS011;40151;43.606;1.472;2023-04-08T13:19:48;1.95;;;1.02;;
54235;SDS011;40151;43.606;1.472;2023-04-08T13:22:14;1.15;;;0.93;;
54235;SDS011;40151;43.606;1.472;2023-04-08T13:24:40;1.80;;;0.90;;
54235;SDS011;40151;43.606;1.472;2023-04-08T13:27:06;1.63;;;1.00;;
54235;SDS011;40151;43.606;1.472;2023-04-08T13:29:32;2.00;;;0.80;;
54235;SDS011;40151;43.606;1.472;2023-04-08T13:31:57;1.27;;;0.80;;
54235;SDS011;40151;43.606;1.472;2023-04-08T13:34:23;1.50;;;0.75;;
54235;SDS011;40151;43.606;1.472;2023-04-08T13:36:48;1.83;;;0.80;;
54235;SDS011;40151;43.606;1.472;2023-04-08T13:39:13;1.63;;;0.98;;
54235;SDS011;40151;43.606;1.472;2023-04-08T13:41:39;1.77;;;1.00;;
54235;SDS011;40151;43.606;1.472;2023-04-08T13:44:04;2.28;;;1.02;;
54235;SDS011;40151;43.606;1.472;2023-04-08T13:46:31;2.10;;;0.88;;
54235;SDS011;40151;43.606;1.472;2023-04-08T13:48:56;1.88;;;0.80;;
54235;SDS011;40151;43.606;1.472;2023-04-08T13:51:22;1.90;;;1.00;;
54235;SDS011;40151;43.606;1.472;2023-04-08T13:53:47;1.35;;;0.80;;
54235;SDS011;40151;43.606;1.472;2023-04-08T13:56:13;1.25;;;0.88;;
54235;SDS011;40151;43.606;1.472;2023-04-08T13:58:38;1.23;;;0.85;;
54235;SDS011;40151;43.606;1.472;2023-04-08T14:01:04;1.17;;;0.63;;
54235;SDS011;40151;43.606;1.472;2023-04-08T14:03:30;1.63;;;0.82;;
54235;SDS011;40151;43.606;1.472;2023-04-08T14:05:55;1.48;;;0.80;;
54235;SDS011;40151;43.606;1.472;2023-04-08T14:08:21;1.65;;;0.80;;
54235;SDS011;40151;43.606;1.472;2023-04-08T14:10:49;1.38;;;0.77;;
54235;SDS011;40151;43.606;1.472;2023-04-08T14:13:17;1.60;;;0.80;;
54235;SDS011;40151;43.606;1.472;2023-04-08T14:15:43;1.50;;;0.80;;
54235;SDS011;40151;43.606;1.472;2023-04-08T14:18:08;1.13;;;0.70;;
54235;SDS011;40151;43.606;1.472;2023-04-08T14:20:34;1.70;;;0.80;;
54235;SDS011;40151;43.606;1.472;2023-04-08T14:23:00;0.95;;;0.52;;
54235;SDS011;40151;43.606;1.472;2023-04-08T14:25:25;1.38;;;0.80;;
54235;SDS011;40151;43.606;1.472;2023-04-08T14:27:51;1.60;;;0.70;;
54235;SDS011;40151;43.606;1.472;2023-04-08T14:30:16;1.20;;;0.70;;
54235;SDS011;40151;43.606;1.472;2023-04-08T14:32:42;1.27;;;0.70;;
54235;SDS011;40151;43.606;1.472;2023-04-08T14:35:07;1.80;;;0.70;;
54235;SDS011;40151;43.606;1.472;2023-04-08T14:37:33;1.70;;;0.95;;
54235;SDS011;40151;43.606;1.472;2023-04-08T14:39:58;1.23;;;0.80;;
54235;SDS011;40151;43.606;1.472;2023-04-08T14:42:24;1.98;;;0.93;;
54235;SDS011;40151;43.606;1.472;2023-04-08T14:44:49;1.30;;;0.73;;
54235;SDS011;40151;43.606;1.472;2023-04-08T14:47:15;2.72;;;1.00;;
54235;SDS011;40151;43.606;1.472;2023-04-08T14:49:40;1.08;;;0.52;;
54235;SDS011;40151;43.606;1.472;2023-04-08T14:52:05;1.48;;;0.60;;
54235;SDS011;40151;43.606;1.472;2023-04-08T14:54:31;1.23;;;0.63;;
54235;SDS011;40151;43.606;1.472;2023-04-08T14:56:56;2.15;;;0.80;;
54235;SDS011;40151;43.606;1.472;2023-04-08T14:59:22;0.90;;;0.60;;
54235;SDS011;40151;43.606;1.472;2023-04-08T15:01:47;1.75;;;0.80;;
54235;SDS011;40151;43.606;1.472;2023-04-08T15:04:13;1.90;;;0.80;;
54235;SDS011;40151;43.606;1.472;2023-04-08T15:06:38;1.45;;;0.70;;
54235;SDS011;40151;43.606;1.472;2023-04-08T15:09:04;1.10;;;0.80;;
54235;SDS011;40151;43.606;1.472;2023-04-08T15:11:30;1.67;;;0.75;;